^^
Station Historical Data
Daily Summary for February 1, 2017 Units:  English    Metric   Both
« Previous Day
Next Day »
Daily Weekly Monthly Yearly Custom
  High: Low: Average:
Temperature: 45.2 °F 27.3 °F 36.6 °F
Dew Point: 32.8 °F 23.6 °F 28 °F
Humidity: 87 % 54 % 72 %
Wind Speed: 13.3 mph 0.0 mph 3.4 mph
Wind Gust: 19.6 mph - -
Wind:- - WSW
Pressure: 30.09 in 29.86 in -
Precipitation: 0.01 in    
Historical Graphs
 
 
Tabular Data for February 1, 2017
Time Temperature Dew Point Pressure Wind Wind Speed Wind Gust Humidity Rainfall Rate (Hourly) solar Conditions
00:04 28.0 °F 24.1 °F 29.86 in Calm     85 % 0.00 in 0.0 W/m2 CLR
00:09 28.0 °F 24.1 °F 29.86 in Calm     85 % 0.00 in 0.0 W/m2 CLR
00:14 28.1 °F 24.5 °F 29.87 in Calm     86 % 0.00 in 0.0 W/m2 CLR
00:19 28.2 °F 24.3 °F 29.87 in Calm     85 % 0.00 in 0.0 W/m2 CLR
00:24 28.2 °F 24.6 °F 29.87 in Calm     86 % 0.00 in 0.0 W/m2 CLR
00:29 28.2 °F 24.3 °F 29.86 in Calm     85 % 0.00 in 0.0 W/m2 CLR
00:34 28.2 °F 24.6 °F 29.87 in Calm     86 % 0.00 in 0.0 W/m2 CLR
00:39 28.2 °F 24.6 °F 29.87 in Calm     86 % 0.00 in 0.0 W/m2 CLR
00:44 28.1 °F 24.5 °F 29.87 in Calm     86 % 0.00 in 0.0 W/m2 CLR
00:49 28.0 °F 24.4 °F 29.87 in Calm     86 % 0.00 in 0.0 W/m2 CLR
00:54 28.0 °F 24.1 °F 29.87 in Calm     85 % 0.00 in 0.0 W/m2 CLR
00:59 27.9 °F 24.0 °F 29.87 in Calm     85 % 0.00 in 0.0 W/m2 CLR
01:04 27.8 °F 23.9 °F 29.87 in Calm     85 % 0.00 in 0.0 W/m2 CLR
01:09 27.8 °F 23.9 °F 29.87 in Calm     85 % 0.00 in 0.0 W/m2 CLR
01:14 27.7 °F 24.1 °F 29.88 in Calm     86 % 0.00 in 0.0 W/m2 CLR
01:19 27.7 °F 24.1 °F 29.88 in Calm     86 % 0.00 in 0.0 W/m2 CLR
01:24 27.6 °F 24.0 °F 29.87 in Calm     86 % 0.00 in 0.0 W/m2 CLR
01:29 27.5 °F 23.6 °F 29.87 in North 0.2 mph 2.0 mph 85 % 0.00 in 0.0 W/m2 CLR
01:34 27.5 °F 23.9 °F 29.87 in North 0.7 mph 2.3 mph 86 % 0.00 in 0.0 W/m2 CLR
01:39 27.4 °F 23.8 °F 29.87 in North 1.1 mph 2.3 mph 86 % 0.00 in 0.0 W/m2 CLR
01:44 27.4 °F 23.8 °F 29.88 in North 0.1 mph   86 % 0.00 in 0.0 W/m2 CLR
01:49 27.4 °F 23.8 °F 29.88 in NNW 0.3 mph 2.0 mph 86 % 0.00 in 0.0 W/m2 CLR
01:54 27.4 °F 23.8 °F 29.88 in NNW 0.3 mph 1.2 mph 86 % 0.00 in 0.0 W/m2 CLR
01:59 27.5 °F 23.9 °F 29.88 in Calm   1.2 mph 86 % 0.00 in 0.0 W/m2 CLR
02:04 27.5 °F 23.9 °F 29.88 in Calm   1.2 mph 86 % 0.00 in 0.0 W/m2 CLR
02:09 27.6 °F 24.0 °F 29.88 in NW 0.3 mph 3.5 mph 86 % 0.00 in 0.0 W/m2 CLR
02:14 27.6 °F 24.0 °F 29.88 in Calm   2.3 mph 86 % 0.00 in 0.0 W/m2 CLR
02:19 27.6 °F 24.0 °F 29.88 in Calm     86 % 0.00 in 0.0 W/m2 CLR
02:24 27.6 °F 24.0 °F 29.88 in Calm   3.5 mph 86 % 0.00 in 0.0 W/m2 CLR
02:29 27.6 °F 24.0 °F 29.89 in Calm     86 % 0.00 in 0.0 W/m2 CLR
02:35 27.5 °F 23.9 °F 29.89 in Calm     86 % 0.00 in 0.0 W/m2 CLR
02:40 27.5 °F 23.9 °F 29.89 in Calm     86 % 0.00 in 0.0 W/m2 CLR
02:45 27.4 °F 23.8 °F 29.89 in Calm     86 % 0.00 in 0.0 W/m2 CLR
02:50 27.3 °F 23.7 °F 29.89 in NW 0.1 mph 2.3 mph 86 % 0.00 in 0.0 W/m2 CLR
02:55 27.3 °F 23.7 °F 29.90 in WNW 1.0 mph 3.0 mph 86 % 0.00 in 0.0 W/m2 CLR
03:00 27.4 °F 23.8 °F 29.90 in West 0.6 mph 1.2 mph 86 % 0.00 in 0.0 W/m2 CLR
03:05 27.5 °F 23.9 °F 29.90 in Calm   3.0 mph 86 % 0.00 in 0.0 W/m2 CLR
03:10 27.7 °F 24.3 °F 29.90 in Calm   3.0 mph 87 % 0.00 in 0.0 W/m2 CLR
03:15 28.0 °F 24.4 °F 29.90 in West 0.2 mph 1.2 mph 86 % 0.00 in 0.0 W/m2 CLR
03:20 28.2 °F 24.8 °F 29.90 in West 2.0 mph 4.0 mph 87 % 0.00 in 0.0 W/m2 CLR
03:25 28.5 °F 25.1 °F 29.90 in West 1.0 mph 6.0 mph 87 % 0.00 in 0.0 W/m2 CLR
03:30 29.0 °F 25.6 °F 29.90 in WSW 0.9 mph 8.1 mph 87 % 0.00 in 0.0 W/m2 CLR
03:35 29.4 °F 26.0 °F 29.90 in West 4.3 mph 7.0 mph 87 % 0.00 in 0.0 W/m2 CLR
03:40 29.8 °F 26.1 °F 29.90 in WSW 4.2 mph 8.1 mph 86 % 0.00 in 0.0 W/m2 CLR
03:45 30.0 °F 26.3 °F 29.89 in WSW 0.8 mph 2.3 mph 86 % 0.00 in 0.0 W/m2 CLR
03:50 30.3 °F 26.6 °F 29.89 in WSW 2.1 mph 4.0 mph 86 % 0.00 in 0.0 W/m2 CLR
03:55 30.5 °F 26.8 °F 29.89 in SW 3.3 mph 5.8 mph 86 % 0.00 in 0.0 W/m2 CLR
04:00 30.9 °F 26.9 °F 29.89 in WSW 2.7 mph 4.0 mph 85 % 0.00 in 0.0 W/m2 CLR
04:05 31.2 °F 27.2 °F 29.89 in WSW 2.5 mph 4.6 mph 85 % 0.00 in 0.0 W/m2 CLR
04:10 31.4 °F 27.1 °F 29.90 in SW 3.0 mph 5.0 mph 84 % 0.00 in 0.0 W/m2 CLR
04:15 31.6 °F 27.3 °F 29.90 in WSW 1.3 mph 3.5 mph 84 % 0.00 in 0.0 W/m2 CLR
04:20 31.8 °F 27.2 °F 29.90 in WSW 1.8 mph 3.5 mph 83 % 0.00 in 0.0 W/m2 CLR
04:25 31.8 °F 27.2 °F 29.90 in WSW 1.2 mph 2.3 mph 83 % 0.00 in 0.0 W/m2 CLR
04:30 31.9 °F 27.3 °F 29.91 in WSW 1.7 mph 3.5 mph 83 % 0.00 in 0.0 W/m2 CLR
04:35 32.0 °F 27.1 °F 29.91 in WSW 1.3 mph 3.5 mph 82 % 0.00 in 0.0 W/m2 CLR
04:40 32.0 °F 27.1 °F 29.91 in WSW 1.6 mph 3.5 mph 82 % 0.00 in 0.0 W/m2 CLR
04:45 32.0 °F 27.1 °F 29.92 in SW 0.3 mph 2.3 mph 82 % 0.00 in 0.0 W/m2 CLR
04:50 32.1 °F 26.9 °F 29.91 in SW 0.4 mph 3.5 mph 81 % 0.00 in 0.0 W/m2 CLR
04:55 32.2 °F 27.0 °F 29.92 in SW 1.1 mph 4.0 mph 81 % 0.00 in 0.0 W/m2 CLR
05:00 32.2 °F 27.0 °F 29.92 in SW 0.6 mph 2.3 mph 81 % 0.00 in 0.0 W/m2 CLR
05:05 32.2 °F 27.0 °F 29.92 in SW 0.2 mph 1.2 mph 81 % 0.00 in 0.0 W/m2 CLR
05:10 32.1 °F 26.6 °F 29.92 in SW 0.1 mph 1.2 mph 80 % 0.00 in 0.0 W/m2 CLR
05:15 31.9 °F 26.4 °F 29.92 in Calm   1.2 mph 80 % 0.00 in 0.0 W/m2 CLR
05:20 31.8 °F 26.3 °F 29.92 in Calm     80 % 0.00 in 0.0 W/m2 CLR
05:25 31.8 °F 26.3 °F 29.92 in SW 0.4 mph 2.3 mph 80 % 0.00 in 0.0 W/m2 CLR
05:30 31.8 °F 26.3 °F 29.93 in WSW 0.4 mph 2.3 mph 80 % 0.00 in 0.0 W/m2 CLR
05:35 32.0 °F 26.5 °F 29.93 in WSW 0.3 mph 4.0 mph 80 % 0.00 in 0.0 W/m2 CLR
05:40 32.2 °F 26.7 °F 29.93 in WSW 2.8 mph 3.5 mph 80 % 0.00 in 0.0 W/m2 CLR
05:45 32.7 °F 27.2 °F 29.94 in West 1.6 mph 6.9 mph 80 % 0.00 in 0.0 W/m2 CLR
05:50 33.1 °F 27.6 °F 29.94 in West 1.0 mph 1.2 mph 80 % 0.00 in 0.0 W/m2 CLR
05:55 33.5 °F 28.0 °F 29.94 in WSW 1.2 mph 3.5 mph 80 % 0.00 in 0.0 W/m2 CLR
06:00 33.7 °F 27.9 °F 29.93 in WSW 1.2 mph 3.5 mph 79 % 0.00 in 0.0 W/m2 CLR
06:05 33.9 °F 28.1 °F 29.93 in WSW 0.5 mph 3.5 mph 79 % 0.00 in 0.0 W/m2 CLR
06:10 34.0 °F 27.9 °F 29.94 in SW 1.4 mph 3.5 mph 78 % 0.00 in 0.0 W/m2 CLR
06:15 33.9 °F 27.4 °F 29.94 in SW 1.3 mph 3.5 mph 77 % 0.00 in 0.0 W/m2 CLR
06:20 33.5 °F 27.1 °F 29.94 in SW 1.7 mph 3.5 mph 77 % 0.00 in 0.0 W/m2 CLR
06:25 33.0 °F 26.3 °F 29.94 in SW 2.4 mph 4.0 mph 76 % 0.00 in 0.0 W/m2 CLR
06:30 32.7 °F 26.3 °F 29.94 in SW 1.9 mph 3.5 mph 77 % 0.00 in 0.0 W/m2 CLR
06:35 32.4 °F 26.0 °F 29.94 in SW 1.0 mph 3.5 mph 77 % 0.00 in 0.0 W/m2 CLR
06:40 32.3 °F 25.9 °F 29.94 in Calm   1.2 mph 77 % 0.00 in 0.0 W/m2 CLR
06:46 32.2 °F 25.8 °F 29.95 in Calm   1.0 mph 77 % 0.00 in 0.0 W/m2 CLR
06:51 32.0 °F 25.9 °F 29.94 in SW 1.4 mph 3.5 mph 78 % 0.00 in 0.0 W/m2 CLR
06:56 31.8 °F 25.7 °F 29.95 in SW 0.4 mph 3.5 mph 78 % 0.00 in 0.0 W/m2 CLR
07:01 31.6 °F 25.5 °F 29.94 in SW 0.2 mph 1.2 mph 78 % 0.00 in 0.0 W/m2 OVC
07:06 31.4 °F 25.3 °F 29.95 in Calm     78 % 0.00 in 0.0 W/m2 OVC
07:11 31.2 °F 25.1 °F 29.96 in SW 0.7 mph 2.3 mph 78 % 0.00 in 0.0 W/m2 OVC
07:16 30.9 °F 25.2 °F 29.96 in Calm     79 % 0.00 in 0.0 W/m2 OVC
07:21 30.8 °F 25.1 °F 29.96 in SW 0.4 mph 2.3 mph 79 % 0.00 in 5.0 W/m2 OVC
07:26 30.8 °F 25.1 °F 29.96 in SW 1.1 mph 2.3 mph 79 % 0.00 in 7.0 W/m2 OVC
07:31 30.9 °F 25.5 °F 29.96 in SW 1.4 mph 2.3 mph 80 % 0.00 in 9.0 W/m2 CLR
07:36 31.0 °F 25.6 °F 29.97 in SW 0.1 mph 1.2 mph 80 % 0.00 in 14.0 W/m2 CLR
07:41 30.9 °F 25.5 °F 29.97 in Calm     80 % 0.00 in 18.0 W/m2 CLR
07:46 30.9 °F 25.5 °F 29.97 in Calm     80 % 0.00 in 26.0 W/m2 CLR
07:51 30.8 °F 25.4 °F 29.97 in Calm     80 % 0.00 in 42.0 W/m2 CLR
07:56 30.8 °F 25.4 °F 29.97 in Calm   1.2 mph 80 % 0.00 in 58.0 W/m2 CLR
08:01 30.9 °F 25.8 °F 29.98 in Calm   1.2 mph 81 % 0.00 in 97.0 W/m2 CLR
08:06 32.0 °F 27.4 °F 29.98 in West 1.4 mph 5.8 mph 83 % 0.00 in 114.0 W/m2 CLR
08:11 33.9 °F 28.7 °F 29.97 in SW 3.6 mph 6.9 mph 81 % 0.00 in 111.0 W/m2 CLR
08:16 35.3 °F 28.8 °F 29.98 in West 4.5 mph 8.1 mph 77 % 0.00 in 98.0 W/m2 CLR
08:24 36.2 °F 28.7 °F 29.97 in WSW 5.0 mph 5.0 mph 74 % 0.00 in 134.0 W/m2 CLR
08:29 36.7 °F 28.9 °F 29.97 in West 2.9 mph 6.9 mph 73 % 0.00 in 127.0 W/m2 CLR
08:34 37.1 °F 28.9 °F 29.97 in WSW 5.4 mph 8.1 mph 72 % 0.00 in 116.0 W/m2 CLR
08:39 37.4 °F 28.5 °F 29.97 in SW 2.1 mph 6.9 mph 70 % 0.00 in 81.0 W/m2 SCT
08:44 37.4 °F 28.5 °F 29.97 in WSW 4.1 mph 8.1 mph 70 % 0.00 in 97.0 W/m2 SCT
08:49 37.5 °F 28.6 °F 29.97 in West 3.8 mph 8.1 mph 70 % 0.00 in 72.0 W/m2 SCT
08:54 37.5 °F 28.6 °F 29.98 in WSW 3.2 mph 5.8 mph 70 % 0.00 in 178.0 W/m2 SCT
08:59 37.6 °F 28.7 °F 29.98 in WSW 3.8 mph 6.9 mph 70 % 0.00 in 128.0 W/m2 FEW
09:04 37.9 °F 29.0 °F 29.98 in WSW 3.1 mph 6.9 mph 70 % 0.00 in 171.0 W/m2 SCT
09:09 38.3 °F 29.4 °F 29.98 in WSW 2.7 mph 3.5 mph 70 % 0.00 in 56.0 W/m2 BKN
09:14 38.4 °F 29.1 °F 29.98 in WSW 0.3 mph 2.3 mph 69 % 0.00 in 76.0 W/m2 BKN
09:19 38.7 °F 29.4 °F 29.97 in WSW 1.6 mph 3.5 mph 69 % 0.00 in 227.0 W/m2 CLR
09:24 39.3 °F 29.6 °F 29.97 in WSW 4.4 mph 8.1 mph 68 % 0.00 in 220.0 W/m2 CLR
09:29 39.7 °F 29.6 °F 29.97 in West 6.9 mph 9.2 mph 67 % 0.00 in 230.0 W/m2 CLR
09:34 40.1 °F 29.6 °F 29.97 in WSW 3.7 mph 6.9 mph 66 % 0.00 in 258.0 W/m2 FEW
09:39 40.3 °F 29.8 °F 29.98 in West 5.4 mph 10.4 mph 66 % 0.00 in 229.0 W/m2 FEW
09:45 40.4 °F 29.6 °F 29.98 in WSW 4.4 mph 8.1 mph 65 % 0.00 in 281.0 W/m2 CLR
09:50 40.6 °F 29.7 °F 29.98 in SW 3.0 mph 12.0 mph 65 % 0.00 in 381.0 W/m2 RA
09:55 40.9 °F 29.2 °F 29.98 in SW 3.0 mph 12.0 mph 63 % 0.00 in 422.0 W/m2 RA
10:00 41.0 °F 29.4 °F 29.98 in WSW 6.7 mph 7.0 mph 63 % 0.01 in 276.0 W/m2 BKN
10:05 41.1 °F 29.5 °F 29.98 in SW 5.0 mph 9.0 mph 63 % 0.00 in 369.0 W/m2 CLR
10:10 41.4 °F 29.8 °F 29.97 in SW 5.0 mph 12.0 mph 63 % 0.00 in 429.0 W/m2 CLR
10:15 41.7 °F 29.6 °F 29.97 in SW 7.8 mph 9.0 mph 62 % 0.01 in 304.0 W/m2 CLR
10:20 41.9 °F 29.4 °F 29.97 in WSW 9.0 mph 15.0 mph 61 % 0.00 in 306.0 W/m2 FEW
10:25 42.2 °F 29.7 °F 29.98 in WSW 7.0 mph 12.0 mph 61 % 0.00 in 327.0 W/m2 FEW
10:30 42.6 °F 29.3 °F 29.98 in SW 11.7 mph 12.7 mph 59 % 0.01 in 417.0 W/m2 CLR
10:35 42.8 °F 29.5 °F 29.97 in SW 6.7 mph 13.0 mph 59 % 0.01 in 220.0 W/m2 SCT
10:40 42.9 °F 29.1 °F 29.97 in WSW 8.2 mph 11.5 mph 58 % 0.01 in 185.0 W/m2 SCT
10:45 43.3 °F 29.9 °F 29.97 in WSW 7.4 mph 11.5 mph 59 % 0.01 in 244.0 W/m2 SCT
10:50 43.5 °F 29.7 °F 29.97 in SW 8.7 mph 16.1 mph 58 % 0.00 in 362.0 W/m2 FEW
10:55 43.5 °F 29.3 °F 29.97 in WSW 11.9 mph 17.0 mph 57 % 0.00 in 294.0 W/m2 SCT
11:00 43.7 °F 29.5 °F 29.97 in West 10.8 mph 19.6 mph 57 % 0.00 in 227.0 W/m2 SCT
11:05 43.9 °F 29.2 °F 29.96 in WSW 9.0 mph 15.0 mph 56 % 0.00 in 327.0 W/m2 FEW
11:10 44.1 °F 29.8 °F 29.97 in SW 8.0 mph 11.5 mph 57 % 0.00 in 420.0 W/m2 CLR
11:15 44.4 °F 29.7 °F 29.97 in West 10.6 mph 17.3 mph 56 % 0.00 in 522.0 W/m2 CLR
11:20 44.6 °F 29.9 °F 29.97 in WSW 7.8 mph 11.0 mph 56 % 0.00 in 457.0 W/m2 CLR
11:25 44.4 °F 29.2 °F 29.96 in SW 7.8 mph 11.5 mph 55 % 0.00 in 564.0 W/m2 CLR
11:30 44.8 °F 29.6 °F 29.96 in SW 5.4 mph 10.0 mph 55 % 0.00 in 587.0 W/m2 CLR
11:35 45.1 °F 29.4 °F 29.96 in SSW 9.0 mph 15.0 mph 54 % 0.00 in 538.0 W/m2 CLR
11:40 44.9 °F 29.2 °F 29.95 in WSW 6.9 mph 11.5 mph 54 % 0.00 in 524.0 W/m2 CLR
11:45 45.0 °F 29.8 °F 29.95 in West 7.5 mph 11.5 mph 55 % 0.00 in 563.0 W/m2 CLR
11:50 45.2 °F 29.5 °F 29.95 in SW 8.9 mph 17.3 mph 54 % 0.00 in 550.0 W/m2 CLR
11:55 45.1 °F 29.4 °F 29.95 in SW 9.1 mph 16.0 mph 54 % 0.00 in 343.0 W/m2 SCT
12:00 44.6 °F 29.0 °F 29.95 in WSW 11.5 mph 17.3 mph 54 % 0.00 in 207.0 W/m2 SCT
12:05 44.3 °F 29.1 °F 29.95 in SW 12.2 mph 19.6 mph 55 % 0.00 in 127.0 W/m2 BKN
12:10 43.7 °F 29.0 °F 29.95 in SW 10.3 mph 16.1 mph 56 % 0.00 in 88.0 W/m2 OVC
12:15 43.3 °F 29.5 °F 29.95 in WSW 10.6 mph 19.6 mph 58 % 0.00 in 185.0 W/m2 BKN
12:20 43.0 °F 29.6 °F 29.95 in WSW 13.3 mph 17.3 mph 59 % 0.00 in 234.0 W/m2 SCT
12:25 43.3 °F 29.9 °F 29.95 in WSW 5.2 mph 13.8 mph 59 % 0.00 in 211.0 W/m2 BKN
12:30 43.5 °F 29.7 °F 29.95 in SW 12.0 mph 19.6 mph 58 % 0.00 in 267.0 W/m2 SCT
12:35 43.1 °F 29.7 °F 29.95 in WNW 11.1 mph 18.4 mph 59 % 0.00 in 202.0 W/m2 SCT
12:40 43.0 °F 30.5 °F 29.95 in West 11.7 mph 14.0 mph 61 % 0.00 in 181.0 W/m2 BKN
12:45 42.8 °F 30.7 °F 29.95 in West 8.3 mph 13.8 mph 62 % 0.00 in 178.0 W/m2 BKN
12:50 42.7 °F 30.6 °F 29.95 in WNW 10.9 mph 16.1 mph 62 % 0.00 in 125.0 W/m2 BKN
12:55 42.6 °F 30.9 °F 29.95 in WNW 6.7 mph 13.8 mph 63 % 0.00 in 102.0 W/m2 OVC
13:01 42.4 °F 31.1 °F 29.95 in WNW 10.7 mph 12.7 mph 64 % 0.00 in 169.0 W/m2 BKN
13:06 42.3 °F 31.0 °F 29.95 in NW 8.2 mph 12.0 mph 64 % 0.00 in 216.0 W/m2 BKN
13:11 42.0 °F 31.1 °F 29.95 in WNW 8.2 mph 11.5 mph 65 % 0.00 in 246.0 W/m2 SCT
13:16 42.4 °F 31.5 °F 29.94 in WNW 10.0 mph 13.8 mph 65 % 0.00 in 232.0 W/m2 SCT
13:21 42.5 °F 31.6 °F 29.94 in NW 6.7 mph 9.2 mph 65 % 0.00 in 160.0 W/m2 BKN
13:26 42.5 °F 31.6 °F 29.94 in West 6.1 mph 9.2 mph 65 % 0.00 in 100.0 W/m2 OVC
13:31 42.2 °F 31.3 °F 29.95 in West 3.5 mph 6.9 mph 65 % 0.00 in 74.0 W/m2 OVC
13:36 42.1 °F 31.9 °F 29.94 in NW 4.2 mph 8.1 mph 67 % 0.00 in 105.0 W/m2 OVC
13:41 42.0 °F 31.8 °F 29.94 in NW 3.0 mph 8.1 mph 67 % 0.00 in 190.0 W/m2 BKN
13:46 42.0 °F 31.8 °F 29.94 in West 3.7 mph 6.9 mph 67 % 0.00 in 218.0 W/m2 SCT
13:51 42.1 °F 32.3 °F 29.94 in WNW 4.2 mph 8.1 mph 68 % 0.00 in 104.0 W/m2 OVC
13:56 41.9 °F 32.1 °F 29.94 in WNW 3.5 mph 5.8 mph 68 % 0.00 in 83.0 W/m2 OVC
14:01 41.6 °F 31.8 °F 29.94 in West 2.8 mph 5.8 mph 68 % 0.00 in 153.0 W/m2 BKN
14:06 41.7 °F 32.3 °F 29.94 in West 1.4 mph 3.5 mph 69 % 0.00 in 109.0 W/m2 BKN
14:11 41.6 °F 32.2 °F 29.94 in West 2.8 mph 6.0 mph 69 % 0.00 in 102.0 W/m2 BKN
14:16 41.6 °F 32.2 °F 29.95 in WNW 2.2 mph 8.1 mph 69 % 0.00 in 83.0 W/m2 OVC
14:21 41.5 °F 32.1 °F 29.95 in NW 3.0 mph 5.8 mph 69 % 0.00 in 77.0 W/m2 OVC
14:26 41.4 °F 32.3 °F 29.95 in WSW 0.6 mph 3.5 mph 70 % 0.00 in 90.0 W/m2 OVC
14:31 41.5 °F 32.4 °F 29.95 in WSW 1.2 mph 3.5 mph 70 % 0.00 in 105.0 W/m2 BKN
14:36 41.6 °F 32.5 °F 29.94 in WSW 0.8 mph 3.5 mph 70 % 0.00 in 181.0 W/m2 SCT
14:41 41.7 °F 32.6 °F 29.94 in West 3.0 mph 5.8 mph 70 % 0.00 in 163.0 W/m2 SCT
14:46 41.9 °F 32.8 °F 29.94 in West 2.0 mph 5.8 mph 70 % 0.00 in 155.0 W/m2 BKN
14:51 41.9 °F 32.5 °F 29.95 in West 3.7 mph 4.6 mph 69 % 0.00 in 153.0 W/m2 BKN
14:56 42.1 °F 32.7 °F 29.95 in West 2.0 mph 3.5 mph 69 % 0.00 in 151.0 W/m2 SCT
15:01 42.1 °F 32.3 °F 29.95 in West 2.3 mph 4.6 mph 68 % 0.00 in 134.0 W/m2 BKN
15:06 42.3 °F 32.5 °F 29.95 in West 4.6 mph 9.0 mph 68 % 0.00 in 130.0 W/m2 BKN
15:11 42.4 °F 32.6 °F 29.96 in WSW 6.9 mph 11.5 mph 68 % 0.00 in 118.0 W/m2 BKN
15:16 42.4 °F 32.6 °F 29.96 in West 2.7 mph 8.1 mph 68 % 0.00 in 123.0 W/m2 BKN
15:21 42.4 °F 32.6 °F 29.95 in West 2.2 mph 4.0 mph 68 % 0.00 in 127.0 W/m2 SCT
15:26 42.2 °F 32.4 °F 29.96 in West 3.2 mph 6.9 mph 68 % 0.00 in 144.0 W/m2 SCT
15:31 42.3 °F 32.8 °F 29.96 in WSW 4.5 mph 8.1 mph 69 % 0.00 in 130.0 W/m2 SCT
15:36 42.4 °F 32.6 °F 29.96 in West 2.2 mph 3.5 mph 68 % 0.00 in 114.0 W/m2 SCT
15:41 42.3 °F 32.5 °F 29.96 in West 3.9 mph 6.9 mph 68 % 0.00 in 105.0 W/m2 SCT
15:46 42.4 °F 32.6 °F 29.96 in West 7.4 mph 10.4 mph 68 % 0.00 in 105.0 W/m2 SCT
15:51 42.4 °F 32.2 °F 29.96 in WSW 5.4 mph 8.1 mph 67 % 0.00 in 90.0 W/m2 SCT
15:56 42.5 °F 32.3 °F 29.97 in WSW 2.4 mph 6.0 mph 67 % 0.00 in 63.0 W/m2 BKN
16:01 42.4 °F 32.2 °F 29.97 in West 2.2 mph 3.5 mph 67 % 0.00 in 53.0 W/m2 BKN
16:07 42.3 °F 32.1 °F 29.97 in West 3.9 mph 7.0 mph 67 % 0.00 in 53.0 W/m2 BKN
16:12 42.2 °F 32.4 °F 29.97 in West 4.4 mph 5.8 mph 68 % 0.00 in 72.0 W/m2 SCT
16:17 42.2 °F 32.4 °F 29.97 in West 0.9 mph 3.5 mph 68 % 0.00 in 63.0 W/m2 SCT
16:22 42.1 °F 32.3 °F 29.98 in West 2.1 mph 4.6 mph 68 % 0.00 in 44.0 W/m2 BKN
16:27 42.1 °F 32.3 °F 29.98 in West 5.3 mph 8.1 mph 68 % 0.00 in 44.0 W/m2 BKN
16:32 42.0 °F 32.2 °F 29.98 in West 4.1 mph 9.2 mph 68 % 0.00 in 42.0 W/m2 SCT
16:37 42.0 °F 32.2 °F 29.98 in West 5.6 mph 9.2 mph 68 % 0.00 in 30.0 W/m2 BKN
16:42 41.9 °F 32.1 °F 29.98 in WSW 5.0 mph 8.1 mph 68 % 0.00 in 23.0 W/m2 BKN
16:47 41.8 °F 32.0 °F 29.98 in West 4.9 mph 6.9 mph 68 % 0.00 in 21.0 W/m2 BKN
16:52 41.7 °F 31.9 °F 29.98 in West 1.2 mph 3.5 mph 68 % 0.00 in 19.0 W/m2 BKN
16:57 41.5 °F 31.7 °F 29.98 in West 0.3 mph 3.5 mph 68 % 0.00 in 18.0 W/m2 SCT
17:02 41.3 °F 31.9 °F 29.98 in West 2.8 mph 6.9 mph 69 % 0.00 in 14.0 W/m2 SCT
17:07 41.3 °F 31.5 °F 29.99 in West 3.3 mph 5.8 mph 68 % 0.00 in 12.0 W/m2 FEW
17:12 41.3 °F 31.5 °F 29.99 in West 5.3 mph 10.4 mph 68 % 0.00 in 7.0 W/m2 CLR
17:17 41.3 °F 31.2 °F 29.99 in WNW 7.9 mph 13.8 mph 67 % 0.00 in 0.0 W/m2 OVC
17:22 41.3 °F 30.8 °F 30.00 in WNW 3.6 mph 8.1 mph 66 % 0.00 in 0.0 W/m2 OVC
17:27 41.4 °F 30.1 °F 30.00 in West 9.5 mph 13.8 mph 64 % 0.00 in 0.0 W/m2 OVC
17:32 41.4 °F 30.1 °F 30.00 in West 7.8 mph 13.8 mph 64 % 0.00 in 0.0 W/m2 OVC
17:37 41.3 °F 29.3 °F 30.01 in West 7.4 mph 10.4 mph 62 % 0.00 in 0.0 W/m2 OVC
17:42 41.4 °F 28.9 °F 30.02 in WSW 5.8 mph 11.5 mph 61 % 0.00 in 0.0 W/m2 OVC
17:47 41.5 °F 28.6 °F 30.02 in West 7.9 mph 12.7 mph 60 % 0.00 in 0.0 W/m2 OVC
17:52 41.6 °F 28.3 °F 30.03 in NW 6.7 mph 12.7 mph 59 % 0.00 in 0.0 W/m2 CLR
17:57 41.6 °F 27.9 °F 30.03 in WNW 10.5 mph 12.0 mph 58 % 0.00 in 0.0 W/m2 CLR
18:02 41.7 °F 28.0 °F 30.03 in West 12.2 mph 17.3 mph 58 % 0.00 in 0.0 W/m2 CLR
18:07 41.7 °F 28.0 °F 30.03 in West 10.0 mph 19.0 mph 58 % 0.00 in 0.0 W/m2 CLR
18:12 41.6 °F 27.9 °F 30.04 in NW 9.8 mph 13.8 mph 58 % 0.00 in 0.0 W/m2 CLR
18:17 40.7 °F 29.5 °F 30.04 in NW 7.2 mph 11.5 mph 64 % 0.00 in 0.0 W/m2 CLR
18:22 40.1 °F 30.0 °F 30.04 in NW 9.2 mph 11.5 mph 67 % 0.00 in 0.0 W/m2 CLR
18:27 39.6 °F 30.3 °F 30.04 in NW 6.6 mph 9.2 mph 69 % 0.00 in 0.0 W/m2 CLR
18:32 39.4 °F 30.4 °F 30.04 in West 7.4 mph 10.4 mph 70 % 0.00 in 0.0 W/m2 CLR
18:37 39.4 °F 30.4 °F 30.04 in WNW 4.1 mph 11.5 mph 70 % 0.00 in 0.0 W/m2 CLR
18:42 39.3 °F 30.3 °F 30.04 in NW 4.2 mph 6.9 mph 70 % 0.00 in 0.0 W/m2 CLR
18:48 39.3 °F 30.3 °F 30.05 in WNW 4.2 mph 8.1 mph 70 % 0.00 in 0.0 W/m2 CLR
18:53 39.3 °F 30.0 °F 30.04 in WNW 4.2 mph 8.0 mph 69 % 0.00 in 0.0 W/m2 CLR
18:58 39.3 °F 29.6 °F 30.04 in WNW 7.3 mph 14.0 mph 68 % 0.00 in 0.0 W/m2 CLR
19:03 39.3 °F 29.3 °F 30.05 in WNW 8.6 mph 13.8 mph 67 % 0.00 in 0.0 W/m2 CLR
19:08 39.4 °F 29.3 °F 30.05 in NW 6.6 mph 10.4 mph 67 % 0.00 in 0.0 W/m2 CLR
19:13 39.4 °F 29.3 °F 30.05 in WNW 10.5 mph 17.3 mph 67 % 0.00 in 0.0 W/m2 CLR
19:18 39.4 °F 29.0 °F 30.05 in WNW 7.6 mph 12.0 mph 66 % 0.00 in 0.0 W/m2 CLR
19:23 39.4 °F 28.6 °F 30.05 in West 10.1 mph 13.8 mph 65 % 0.00 in 0.0 W/m2 CLR
19:28 39.5 °F 28.3 °F 30.05 in West 10.3 mph 13.8 mph 64 % 0.00 in 0.0 W/m2 CLR
19:33 39.7 °F 28.1 °F 30.06 in West 10.3 mph 19.6 mph 63 % 0.00 in 0.0 W/m2 CLR
19:38 39.8 °F 27.8 °F 30.06 in West 8.1 mph 12.7 mph 62 % 0.00 in 0.0 W/m2 CLR
19:43 39.8 °F 27.4 °F 30.06 in West 5.7 mph 10.4 mph 61 % 0.00 in 0.0 W/m2 CLR
19:48 39.8 °F 27.4 °F 30.07 in West 7.7 mph 11.5 mph 61 % 0.00 in 0.0 W/m2 CLR
19:53 39.7 °F 26.9 °F 30.06 in WNW 4.0 mph 6.9 mph 60 % 0.00 in 0.0 W/m2 CLR
19:58 39.6 °F 27.2 °F 30.06 in West 4.5 mph 5.8 mph 61 % 0.00 in 0.0 W/m2 CLR
20:03 39.5 °F 26.8 °F 30.06 in WNW 5.8 mph 10.0 mph 60 % 0.00 in 0.0 W/m2 CLR
20:08 39.4 °F 27.1 °F 30.06 in West 3.1 mph 6.0 mph 61 % 0.00 in 0.0 W/m2 CLR
20:13 39.3 °F 27.0 °F 30.06 in West 3.7 mph 7.0 mph 61 % 0.00 in 0.0 W/m2 CLR
20:18 39.1 °F 26.8 °F 30.06 in West 2.0 mph 6.9 mph 61 % 0.00 in 0.0 W/m2 CLR
20:23 38.9 °F 27.0 °F 30.06 in West 2.5 mph 5.8 mph 62 % 0.00 in 0.0 W/m2 CLR
20:28 38.6 °F 27.1 °F 30.06 in West 4.1 mph 8.0 mph 63 % 0.00 in 0.0 W/m2 CLR
20:33 38.4 °F 27.3 °F 30.06 in West 4.8 mph 6.9 mph 64 % 0.00 in 0.0 W/m2 CLR
20:38 38.3 °F 27.6 °F 30.06 in West 1.2 mph 3.5 mph 65 % 0.00 in 0.0 W/m2 CLR
20:43 38.0 °F 27.3 °F 30.07 in West 1.7 mph 3.5 mph 65 % 0.00 in 0.0 W/m2 CLR
20:48 37.9 °F 27.5 °F 30.07 in WNW 3.2 mph 3.5 mph 66 % 0.00 in 0.0 W/m2 CLR
20:53 37.8 °F 27.5 °F 30.07 in West 2.1 mph 3.5 mph 66 % 0.00 in 0.0 W/m2 CLR
20:58 37.8 °F 27.8 °F 30.07 in West 0.7 mph 2.3 mph 67 % 0.00 in 0.0 W/m2 CLR
21:03 37.6 °F 27.6 °F 30.08 in West 0.8 mph 3.5 mph 67 % 0.00 in 0.0 W/m2 CLR
21:08 37.5 °F 27.5 °F 30.08 in WSW 0.9 mph 3.5 mph 67 % 0.00 in 0.0 W/m2 CLR
21:13 37.4 °F 27.4 °F 30.08 in WSW 1.6 mph 5.8 mph 67 % 0.00 in 0.0 W/m2 CLR
21:18 37.3 °F 27.7 °F 30.08 in WSW 2.4 mph 4.0 mph 68 % 0.00 in 0.0 W/m2 CLR
21:23 37.3 °F 27.7 °F 30.08 in West 3.2 mph 3.5 mph 68 % 0.00 in 0.0 W/m2 CLR
21:29 37.3 °F 27.7 °F 30.08 in West 0.9 mph 3.5 mph 68 % 0.00 in 0.0 W/m2 CLR
21:34 37.1 °F 27.5 °F 30.08 in West 2.8 mph 3.5 mph 68 % 0.00 in 0.0 W/m2 CLR
21:39 37.0 °F 27.4 °F 30.08 in West 0.8 mph 2.3 mph 68 % 0.00 in 0.0 W/m2 CLR
21:44 36.8 °F 27.2 °F 30.08 in West 1.7 mph 3.5 mph 68 % 0.00 in 0.0 W/m2 CLR
21:49 36.7 °F 27.1 °F 30.08 in West 0.7 mph 2.3 mph 68 % 0.00 in 0.0 W/m2 CLR
21:54 36.8 °F 27.2 °F 30.08 in WNW 2.7 mph 5.8 mph 68 % 0.00 in 0.0 W/m2 CLR
21:59 36.7 °F 27.1 °F 30.08 in WNW 0.7 mph 3.5 mph 68 % 0.00 in 0.0 W/m2 CLR
22:04 36.6 °F 27.0 °F 30.08 in West 2.0 mph 3.5 mph 68 % 0.00 in 0.0 W/m2 CLR
22:09 36.5 °F 26.9 °F 30.08 in WNW 0.9 mph 2.3 mph 68 % 0.00 in 0.0 W/m2 CLR
22:14 36.2 °F 26.6 °F 30.08 in WNW 0.3 mph 2.3 mph 68 % 0.00 in 0.0 W/m2 CLR
22:19 35.8 °F 26.6 °F 30.07 in Calm     69 % 0.00 in 0.0 W/m2 CLR
22:24 35.0 °F 26.2 °F 30.07 in WNW 0.5 mph 2.3 mph 70 % 0.00 in 0.0 W/m2 CLR
22:29 34.6 °F 26.2 °F 30.07 in Calm   3.5 mph 71 % 0.00 in 0.0 W/m2 CLR
22:34 34.4 °F 26.0 °F 30.07 in Calm     71 % 0.00 in 0.0 W/m2 CLR
22:39 34.2 °F 26.1 °F 30.08 in Calm     72 % 0.00 in 0.0 W/m2 CLR
22:44 33.8 °F 25.7 °F 30.08 in Calm     72 % 0.00 in 0.0 W/m2 CLR
22:49 33.5 °F 25.8 °F 30.08 in Calm     73 % 0.00 in 0.0 W/m2 CLR
22:54 33.3 °F 25.6 °F 30.08 in Calm     73 % 0.00 in 0.0 W/m2 CLR
22:59 33.1 °F 25.7 °F 30.08 in Calm     74 % 0.00 in 0.0 W/m2 CLR
23:04 32.7 °F 25.3 °F 30.08 in Calm     74 % 0.00 in 0.0 W/m2 CLR
23:09 32.6 °F 25.2 °F 30.09 in Calm   1.2 mph 74 % 0.00 in 0.0 W/m2 CLR
23:14 32.7 °F 25.6 °F 30.08 in Calm     75 % 0.00 in 0.0 W/m2 CLR
23:19 32.6 °F 25.6 °F 30.08 in Calm     75 % 0.00 in 0.0 W/m2 CLR
23:24 32.2 °F 25.2 °F 30.08 in Calm     75 % 0.00 in 0.0 W/m2 CLR
23:29 31.8 °F 24.8 °F 30.08 in Calm     75 % 0.00 in 0.0 W/m2 CLR
23:34 31.4 °F 24.4 °F 30.08 in Calm     75 % 0.00 in 0.0 W/m2 CLR
23:39 30.9 °F 24.2 °F 30.08 in Calm     76 % 0.00 in 0.0 W/m2 CLR
23:44 30.8 °F 24.4 °F 30.08 in Calm     77 % 0.00 in 0.0 W/m2 CLR
23:49 30.3 °F 24.0 °F 30.08 in Calm     77 % 0.00 in 0.0 W/m2 CLR
23:54 30.3 °F 24.3 °F 30.08 in Calm     78 % 0.00 in 0.0 W/m2 CLR
23:59 30.1 °F 24.1 °F 30.08 in Calm     78 % 0.00 in 0.0 W/m2 CLR
Air Products Campus Weather
Compliments of Weather Underground - 3.5 mb